Meteo Giornale » Osservazioni meteo Italia » Aosta

ore: 18:50 - Osservazioni Meteo Aosta
Lat. 45° 44' N Lon. 7° 22' E Alt. 546 metri s.l.m.

nuvoloso Europe/Rome

26 °C

Nuvoloso

Temp. 24 Ore

15 °C

28 °C

Ovest/Nord-Ovest

7.4 Km/h

Dew point 11 °C

Umidità 39 %

Visibilità  10 Km

Il sole sorge alle ore 05:44

Il sole tramonta alle ore 21:25

Data e Ora Cielo e Fenomeni T °C DP °C Um. % Pres. hPa Vis. km Vento km/h
Oggi h: 18:50 nuvoloso Nuvoloso 26 11 39 1014 10 O/NO 7.4
Oggi h: 18:20 coperto_pioggia Pioggia Debole 25 11 41 1014 10 O 13
Oggi h: 17:50 coperto_pioggia Pioggia Debole 23 10 43 1014 10 N 3.7
Oggi h: 16:50 nuvoloso Nuvoloso 26 10 36 1014 10 O/NO 13
Oggi h: 16:20 nuvoloso Nuvoloso 26 9 34 1014 10 O/NO 16.7
Oggi h: 15:20 poco_nuvoloso Poco Nuvoloso 26 10 36 1014 10 NO 11.1
Oggi h: 14:50 poco_nuvoloso Poco Nuvoloso 26 12 41 1013 10 E 13
Oggi h: 14:20 sereno Sereno 26 11 39 1013 10 E/SE 9.3
Oggi h: 13:50 sereno Sereno 28 9 30 1013 10 E 9.3
Oggi h: 13:20 sereno Sereno 28 8 28 1013 10 E/SE 7.4
Oggi h: 12:50 poco_nuvoloso Poco Nuvoloso 28 10 32 1013 10 N 9.3
Oggi h: 12:20 sereno Sereno 26 9 34 1014 10 N 5.5
Oggi h: 11:50 poco_nuvoloso Poco Nuvoloso 26 11 39 1014 10 E 11.1
Oggi h: 11:20 nuvoloso Nuvoloso 24 11 43 1014 10 E 13
Oggi h: 10:50 poco_nuvoloso Poco Nuvoloso 22 12 53 1014 10 E 9.3
Oggi h: 10:20 poco_nuvoloso Poco Nuvoloso 21 11 52 1014 10 E 9.3
Oggi h: 09:20 poco_nuvoloso Poco Nuvoloso 20 11 56 1015 10 E 7.4
Oggi h: 08:20 molto_nuvoloso Molto Nuvoloso 19 10 55 1015 10 N 3.7
Oggi h: 07:50 molto_nuvoloso Molto Nuvoloso 18 10 59 1015 10 N 0
Oggi h: 07:20 poco_nuvoloso Poco Nuvoloso 17 11 67 1015 10 N 0
Oggi h: 06:20 sereno Sereno 15 10 72 1014 10 N 0
Oggi h: 05:50 sereno Sereno 15 10 72 1014 10 N 5.5
Ieri h: 21:20 poco_nuvoloso Poco Nuvoloso 22 11 49 1014 10 O/NO 18.5
Ieri h: 20:50 poco_nuvoloso Poco Nuvoloso 23 10 43 1013 10 O/NO 18.5